• Join FlightAware (Why Join?)
  • Login
  • US Flag 
11:47PM EST


 

Airport Tracker/Info


-or-


 

Live Flight TrackerFlight Track Log ✈ AAY855 ✈ 24-Jan-2014 ✈ KSBN - KPIE

Flight Track Log - Related Links

Times and Time Zones

All times are in EST time to prevent confusion due to time zone crossing. See the AAY855 flight status page for this flight to view local times or setup timezone preferences in your user account.

Time Position Orientation Groundspeed Altitude Reporting Facility
EST Latitude Longitude Course Direction KTS MPH feet Rate Location/Type
12:07PM 41.7033 -86.3464 181° South 170 196 31,000  Level Chicago Center
12:08PM 41.6578 -86.3475 181° South 235 270 5,200 -11,580 Descending Chicago Center
12:09PM 41.6086 -86.2700 130° Southeast 273 314 7,300 2,340 Climbing Chicago Center
12:10PM 41.5492 -86.1822 132° Southeast 306 352 10,100 2,160 Climbing Chicago Center
12:12PM 41.4919 -86.0803 127° Southeast 342 394 11,800 1,740 Climbing Chicago Center
12:13PM 41.4089 -85.9350 127° Southeast 410 472 13,700 1,800 Climbing Chicago Center
12:14PM 41.3353 -85.8058 127° Southeast 437 503 15,600 1,920 Climbing Chicago Center
12:15PM 41.2586 -85.6719 127° Southeast 456 525 17,700 1,800 Climbing Chicago Center
12:16PM 41.1806 -85.5375 128° Southeast 463 533 19,400 1,560 Climbing Chicago Center
12:17PM 41.1303 -85.3761 112° Southeast 486 559 21,000 1,680 Climbing Chicago Center
12:18PM 41.1139 -85.1986 97° East 487 560 22,900 2,460 Climbing Chicago Center
12:19PM 41.0814 -84.9914 102° East 482 555 26,100 1,800 Climbing Chicago Center
12:20PM 40.9922 -84.8706 134° Southeast 471 542 26,700 600 Climbing Chicago Center
12:21PM 40.8708 -84.8483 172° South 448 516 27,400 720 Climbing Chicago Center
12:22PM 40.7486 -84.8633 185° South 450 518 28,300 1,260 Climbing Chicago Center
12:23PM 40.6114 -84.8497 176° South 460 529 30,100 1,440 Climbing Chicago Center
12:24PM 40.5111 -84.8433 177° South 453 521 31,200 1,080 Climbing Indianapolis Center
12:25PM 40.3653 -84.8344 177° South 443 510 32,300 780 Climbing Indianapolis Center
12:26PM 40.2422 -84.8264 177° South 443 510 32,900 300 Climbing Indianapolis Center
12:27PM 40.1164 -84.8183 177° South 449 517 33,000  Climbing Indianapolis Center
12:28PM 39.9911 -84.8103 177° South 452 520 33,000  Level Indianapolis Center
12:29PM 39.8650 -84.8033 178° South 454 522 33,000  Level Indianapolis Center
12:30PM 39.7403 -84.7950 177° South 453 521 33,000  Level Indianapolis Center
12:31PM 39.6167 -84.7869 177° South 450 518 33,000  Level Indianapolis Center
12:32PM 39.4675 -84.7781 177° South 448 516 33,000  Level Indianapolis Center
12:33PM 39.3447 -84.7692 177° South 446 513 33,000  Level Indianapolis Center
12:34PM 39.2214 -84.7622 178° South 446 513 33,000  Level Indianapolis Center
12:35PM 39.0969 -84.7536 177° South 447 514 33,000  Level Indianapolis Center
12:36PM 38.9744 -84.7461 177° South 444 511 33,000  Level Indianapolis Center
12:37PM 38.8464 -84.7381 177° South 442 509 33,000  Level Indianapolis Center
12:38PM 38.7208 -84.7314 178° South 449 517 33,000  Level Indianapolis Center
12:39PM 38.5861 -84.7236 177° South 447 514 33,000  Level Indianapolis Center
12:40PM 38.4625 -84.7156 177° South 444 511 33,000  Level Indianapolis Center
12:41PM 38.3411 -84.7083 177° South 439 505 33,000  Level Indianapolis Center
12:42PM 38.1992 -84.6992 177° South 435 501 33,000  Level Indianapolis Center
12:43PM 38.0767 -84.6914 177° South 438 504 33,000  Level Indianapolis Center
12:44PM 37.9533 -84.6839 177° South 441 507 33,000  Level Indianapolis Center
12:45PM 37.8303 -84.6758 177° South 444 511 33,000  Level Indianapolis Center
12:46PM 37.7061 -84.6692 178° South 446 513 33,000  Level Indianapolis Center
12:47PM 37.5825 -84.6603 177° South 444 511 33,000  Level Indianapolis Center
12:48PM 37.4589 -84.6542 178° South 442 509 33,000  Level Indianapolis Center
12:49PM 37.3167 -84.6453 177° South 440 506 33,000  Level Indianapolis Center
12:50PM 37.1922 -84.6383 177° South 443 510 33,000  Level Indianapolis Center
12:51PM 37.0675 -84.6317 178° South 447 514 33,000  Level Indianapolis Center
12:53PM 36.9433 -84.6267 178° South 447 514 33,000  Level Indianapolis Center
12:54PM 36.8206 -84.6214 178° South 442 509 33,000  Level Indianapolis Center
12:55PM 36.6967 -84.6164 178° South 444 511 33,000  Level Indianapolis Center
12:56PM 36.5711 -84.6114 178° South 447 514 33,000  Level Indianapolis Center
12:57PM 36.4219 -84.6042 178° South 446 513 33,000  Level Indianapolis Center
12:58PM 36.2989 -84.5992 178° South 442 509 33,000  Level Indianapolis Center
12:59PM 36.1769 -84.5939 178° South 436 502 33,000  Level Indianapolis Center
01:00PM 36.0536 -84.5894 178° South 438 504 33,000  Level Indianapolis Center
01:01PM 35.9283 -84.5842 178° South 443 510 33,000  Level Indianapolis Center
01:02PM 35.8031 -84.5786 178° South 441 507 33,000  Level Indianapolis Center
01:03PM 35.6783 -84.5736 178° South 442 509 33,000  Level Indianapolis Center
01:04PM 35.5536 -84.5683 178° South 443 510 33,000  Level Indianapolis Center
01:05PM 35.4042 -84.5636 179° South 440 506 33,000  Level Atlanta Center
01:06PM 35.2833 -84.5578 178° South 440 506 33,000  Level Atlanta Center
01:07PM 35.1600 -84.5544 179° South 440 506 33,000  Level Atlanta Center
01:08PM 35.0369 -84.5511 179° South 440 506 33,000  Level Atlanta Center
01:09PM 34.9139 -84.5453 178° South 440 506 33,000  Level Atlanta Center
01:10PM 34.7806 -84.5394 178° South 440 506 33,000  Level Atlanta Center
01:11PM 34.6594 -84.5364 179° South 440 506 33,000  Level Atlanta Center
01:12PM 34.5425 -84.5256 176° South 435 501 33,000  Level Atlanta Center
01:13PM 34.4217 -84.5222 179° South 440 506 33,000  Level Atlanta Center
01:14PM 34.3025 -84.5167 178° South 435 501 33,000  Level Atlanta Center
01:15PM 34.1878 -84.5133 179° South 425 489 33,000  Level Atlanta Center
01:16PM 34.0708 -84.5103 179° South 419 482 33,000  Level Atlanta Center
01:17PM 33.9500 -84.5072 179° South 424 488 33,000  Level Atlanta Center
01:18PM 33.8308 -84.5039 179° South 424 488 33,000  Level Atlanta Center
01:19PM 33.7119 -84.4958 177° South 429 494 33,000  Level Atlanta Center
01:20PM 33.5931 -84.4928 179° South 422 486 33,000  Level Atlanta Center
01:21PM 33.4761 -84.4872 178° South 422 486 33,000  Level Atlanta Center
01:22PM 33.3531 -84.4839 179° South 434 499 33,000  Level Atlanta Center
01:23PM 33.2342 -84.4783 178° South 434 499 33,000  Level Atlanta Center
01:24PM 33.1131 -84.4753 179° South 439 505 33,000  Level Atlanta Center
01:25PM 32.9919 -84.4722 179° South 439 505 33,000  Level Atlanta Center
01:26PM 32.8856 -84.4692 179° South 434 499 33,000  Level Atlanta Center
01:27PM 32.7667 -84.4589 176° South 434 499 33,000  Level Atlanta Center
01:28PM 32.6456 -84.4533 178° South 434 499 33,000  Level Atlanta Center
01:29PM 32.5267 -84.4503 179° South 434 499 33,000  Level Atlanta Center
01:30PM 32.4075 -84.4447 178° South 434 499 33,000  Level Atlanta Center
01:31PM 32.2908 -84.4394 178° South 434 499 33,000  Level Atlanta Center
01:32PM 32.1717 -84.4389 180° South 429 494 33,000  Level Atlanta Center
01:33PM 32.1028 -84.4328 176° South 427 491 33,000  Level Jacksonville Center
01:34PM 31.9842 -84.4211 175° South 427 491 33,000  Level Jacksonville Center
01:35PM 31.8467 -84.3819 166° South 444 511 33,000  Level Jacksonville Center
01:36PM 31.7258 -84.3533 169° South 449 517 33,000  Level Jacksonville Center
01:37PM 31.6031 -84.3219 168° South 449 517 33,000  Level Jacksonville Center
01:38PM 31.4825 -84.2908 168° South 449 517 33,000  Level Jacksonville Center
01:39PM 31.3617 -84.2647 170° South 449 517 33,000  Level Jacksonville Center
01:40PM 31.2408 -84.2339 168° South 449 517 33,000 -360 Level Jacksonville Center
01:41PM 31.1200 -84.2053 169° South 449 517 32,300 -840 Descending Jacksonville Center
01:42PM 30.9992 -84.1772 169° South 449 517 31,400 -660 Descending Jacksonville Center
01:43PM 30.8806 -84.1464 167° South 449 517 31,000 -240 Descending Jacksonville Center
01:44PM 30.7597 -84.1183 169° South 449 517 31,000  Level Jacksonville Center
01:45PM 30.6367 -84.0878 168° South 449 517 31,000 -60 Level Jacksonville Center
01:46PM 30.5325 -84.0647 169° South 449 517 30,900 -60 Descending Jacksonville Center
01:47PM 30.4097 -84.0367 169° South 444 511 30,900  Level Jacksonville Center
01:48PM 30.2867 -84.0089 169° South 450 518 30,900  Level Jacksonville Center
01:49PM 30.1681 -83.9786 168° South 450 518 30,900  Level Jacksonville Center
01:50PM 30.0472 -83.9364 163° South 450 518 30,900  Level Jacksonville Center
01:51PM 29.9267 -83.8703 155° Southeast 465 535 30,900  Level Jacksonville Center
01:52PM 29.8061 -83.8094 156° South 470 541 30,900 -180 Level Jacksonville Center
01:53PM 29.6875 -83.7461 155° Southeast 475 547 30,600 -660 Descending Jacksonville Center
01:54PM 29.5647 -83.6878 158° South 475 547 29,600 -1,020 Descending Jacksonville Center
01:55PM 29.4439 -83.6247 156° South 480 552 28,600 -1,020 Descending Jacksonville Center
01:56PM 29.3169 -83.5642 157° South 480 552 27,600 -840 Descending Jacksonville Center
01:57PM 29.1919 -83.4944 154° Southeast 485 558 27,000 -900 Descending Jacksonville Center
01:58PM 29.0692 -83.4175 151° Southeast 490 564 25,900 -1,500 Descending Jacksonville Center
01:59PM 28.9506 -83.3386 150° Southeast 495 570 24,100 -2,520 Descending Jacksonville Center
02:00PM 28.8194 -83.2553 151° Southeast 495 570 20,900 -2,700 Descending Jacksonville Center
02:01PM 28.7067 -83.1861 152° Southeast 484 557 18,700 -2,220 Descending Jacksonville Center
02:02PM 28.6006 -83.1219 152° Southeast 457 526 16,500 -2,520 Descending Jacksonville Center
02:02PM 28.5500 -83.1000 159° South 426 490 14,900 -2,340 Descending Tampa TRACON
02:03PM 28.4500 -83.0333 150° Southeast 405 466 12,900 -1,500 Descending Tampa TRACON
02:04PM 28.3500 -82.9667 150° Southeast 395 455 11,800 -1,140 Descending Tampa TRACON
02:05PM 28.2500 -82.9000 150° Southeast 362 417 10,600 -1,140 Descending Tampa TRACON
02:06PM 28.1667 -82.8500 152° Southeast 312 359 9,600 -1,080 Descending Tampa TRACON
02:07PM 28.1000 -82.8167 156° South 281 323 8,500 -1,560 Descending Tampa TRACON
02:08PM 28.0333 -82.7667 146° Southeast 256 295 6,500 -2,100 Descending Tampa TRACON
02:09PM 27.9667 -82.7333 156° South 247 284 4,300 -1,860 Descending Tampa TRACON
02:10PM 27.9167 -82.7500 196° South 214 246 2,800 -1,200 Descending Tampa TRACON
02:11PM 27.8500 -82.7500 180° South 170 196 2,000 -540 Descending Tampa TRACON
02:12PM 27.8333 -82.7333 139° Southeast 135 155 1,800 -360 Descending Tampa TRACON
02:13PM 27.8333 -82.6833 90° East 136 157 1,300 -540 Descending Tampa TRACON
02:14PM 27.8667 -82.6833 360° North 145 167 700 -600 Descending Tampa TRACON